Time;durP1;ratioP1;P1;durP2;ratioP2;P2;SDS_P1;SDS_P2;PMS_P1;PMS_P2;Temp;Humidity;BMP_temperature;BMP_pressure;BME280_temperature;BME280_humidity;BME280_pressure;Samples;Min_cycle;Max_cycle;Signal;HPM_P1;HPM_P2
2021/01/09 13:11:32;;;;;;;13.27;5.73;;;3.60;99.90;;;;;;5221819;23;20300;-90
2021/01/09 13:13:58;;;;;;;11.37;5.37;;;3.60;99.90;;;;;;4904513;29;20221;-91
2021/01/09 17:58:37;;;;;;;20.50;9.47;;;3.30;99.90;;;;;;4898236;29;20221;-90
2021/01/09 18:01:04;;;;;;;22.33;12.13;;;3.40;99.90;;;;;;4884523;29;20201;-89
2021/01/09 18:03:29;;;;;;;20.33;10.10;;;3.40;99.90;;;;;;4884206;29;20189;-89
2021/01/09 18:05:55;;;;;;;19.10;9.70;;;3.40;99.90;;;;;;4883629;29;20218;-89
2021/01/09 18:08:21;;;;;;;19.10;9.00;;;3.40;99.90;;;;;;4880893;29;20571;-89
2021/01/09 18:10:46;;;;;;;18.17;9.07;;;3.40;99.90;;;;;;4881858;29;20315;-91
2021/01/09 18:13:12;;;;;;;24.60;13.40;;;3.30;99.90;;;;;;4882156;29;20205;-90
2021/01/09 18:15:38;;;;;;;23.43;13.33;;;3.40;99.90;;;;;;4881633;29;20212;-90
2021/01/09 18:18:04;;;;;;;20.40;10.60;;;3.30;99.90;;;;;;4880826;29;20198;-90
2021/01/09 18:20:29;;;;;;;24.37;11.33;;;3.30;99.90;;;;;;4881002;29;20222;-89
2021/01/09 18:22:55;;;;;;;18.80;10.43;;;3.30;99.90;;;;;;4879874;29;20190;-90
2021/01/09 18:25:21;;;;;;;20.83;10.00;;;3.30;99.90;;;;;;4883540;29;20237;-90
2021/01/09 18:27:46;;;;;;;15.80;8.70;;;3.30;99.90;;;;;;4884342;29;20194;-93
2021/01/09 18:30:13;;;;;;;22.97;11.87;;;3.30;99.90;;;;;;4888914;29;20194;-90
2021/01/09 18:32:43;;;;;;;25.33;13.03;;;3.20;99.90;;;;;;4883718;29;20209;-92
2021/01/09 18:35:11;;;;;;;18.93;10.87;;;3.20;99.90;;;;;;4885677;29;20216;-91
2021/01/09 18:37:36;;;;;;;18.70;9.70;;;3.20;99.90;;;;;;4882121;29;20619;-91
2021/01/09 18:40:04;;;;;;;19.70;9.60;;;3.30;99.90;;;;;;4883841;29;20193;-90
2021/01/09 18:42:29;;;;;;;20.43;10.23;;;3.20;99.90;;;;;;4893020;29;20227;-91
2021/01/09 18:44:55;;;;;;;20.03;10.10;;;3.30;99.90;;;;;;4876071;29;20186;-91
2021/01/09 18:47:21;;;;;;;18.80;9.83;;;3.30;99.90;;;;;;4873380;29;20191;-90
2021/01/09 18:49:47;;;;;;;19.07;10.37;;;3.30;99.90;;;;;;4885145;29;20187;-91
2021/01/09 18:52:14;;;;;;;21.17;9.93;;;3.40;99.90;;;;;;4885614;29;20189;-90
2021/01/09 18:54:41;;;;;;;20.67;11.30;;;3.40;99.90;;;;;;4893311;29;20204;-90
2021/01/09 18:57:08;;;;;;;25.43;13.57;;;3.40;99.90;;;;;;4905376;29;20265;-90
2021/01/09 18:59:33;;;;;;;18.57;10.53;;;3.30;99.90;;;;;;4893446;29;20190;-91
2021/01/09 19:01:59;;;;;;;20.37;10.10;;;3.30;99.90;;;;;;4908017;29;20708;-90
2021/01/09 19:04:25;;;;;;;20.23;9.67;;;3.30;99.90;;;;;;4883803;29;20186;-90
2021/01/09 19:06:56;;;;;;;17.10;8.87;;;3.20;99.90;;;;;;4883737;29;20221;-90
2021/01/09 19:09:22;;;;;;;20.80;10.43;;;3.20;99.90;;;;;;4884617;29;20194;-89
2021/01/09 19:11:47;;;;;;;22.33;11.27;;;3.20;99.90;;;;;;4868227;29;20206;-91
2021/01/09 19:14:13;;;;;;;20.37;11.10;;;3.20;99.90;;;;;;4883620;29;20248;-89
2021/01/09 19:16:40;;;;;;;22.00;10.47;;;3.30;99.90;;;;;;4883991;29;20215;-90
2021/01/09 19:19:05;;;;;;;21.37;11.27;;;3.30;99.90;;;;;;4883652;29;20741;-90
2021/01/09 19:21:32;;;;;;;20.23;9.90;;;3.20;99.90;;;;;;4882214;29;20217;-90
2021/01/09 19:23:58;;;;;;;17.03;8.77;;;3.20;99.90;;;;;;4883092;29;20196;-90
2021/01/09 19:26:23;;;;;;;17.57;9.43;;;3.20;99.90;;;;;;4872486;29;20209;-89
2021/01/09 19:28:49;;;;;;;18.37;9.07;;;3.20;99.90;;;;;;4876739;29;20570;-89
2021/01/09 19:31:17;;;;;;;17.33;9.47;;;3.20;99.90;;;;;;4881075;29;20193;-89
2021/01/09 19:33:42;;;;;;;17.67;8.90;;;3.20;99.90;;;;;;4881330;29;20190;-90
2021/01/09 19:36:12;;;;;;;18.33;8.73;;;3.20;99.90;;;;;;4885902;29;20576;-90
2021/01/09 19:38:37;;;;;;;17.60;9.47;;;3.20;99.90;;;;;;4879102;29;20190;-90
2021/01/09 19:41:03;;;;;;;20.07;11.57;;;3.10;99.90;;;;;;4893350;29;20567;-89
2021/01/09 19:43:28;;;;;;;19.33;10.73;;;3.20;99.90;;;;;;4870080;29;20197;-90
2021/01/09 19:45:54;;;;;;;22.10;11.07;;;3.10;99.90;;;;;;4881160;29;20212;-89
2021/01/09 19:48:20;;;;;;;20.57;11.17;;;3.20;99.90;;;;;;4877985;29;20268;-90
2021/01/09 19:50:45;;;;;;;19.00;9.87;;;3.20;99.90;;;;;;4884123;29;20215;-89
2021/01/09 19:53:11;;;;;;;15.40;8.50;;;3.20;99.90;;;;;;4878166;29;20197;-89
2021/01/09 19:55:36;;;;;;;19.50;9.07;;;3.20;99.90;;;;;;4879493;29;20205;-90
2021/01/09 19:58:02;;;;;;;17.97;9.20;;;3.20;99.90;;;;;;4864030;29;878517;-90
2021/01/09 20:00:28;;;;;;;18.00;8.87;;;3.20;99.90;;;;;;4883521;29;20197;-89
2021/01/09 20:02:53;;;;;;;19.57;9.63;;;3.10;99.90;;;;;;4880398;29;20193;-89
2021/01/09 20:05:19;;;;;;;20.53;10.10;;;3.10;99.90;;;;;;4881001;29;20484;-92
2021/01/09 20:07:44;;;;;;;21.27;9.53;;;3.10;99.90;;;;;;4879263;29;20190;-91
2021/01/09 20:10:10;;;;;;;20.50;9.50;;;3.20;99.90;;;;;;4886039;29;20210;-90
2021/01/09 20:12:36;;;;;;;21.17;9.83;;;3.20;99.90;;;;;;4884707;29;20189;-89
2021/01/09 20:15:01;;;;;;;20.37;9.23;;;3.20;99.90;;;;;;4878930;29;20203;-90
2021/01/09 20:17:31;;;;;;;25.47;11.43;;;3.20;99.90;;;;;;4879403;29;20205;-91
2021/01/09 20:19:56;;;;;;;19.20;9.93;;;3.30;99.90;;;;;;4892815;29;20269;-90
2021/01/09 20:22:22;;;;;;;20.33;11.23;;;3.20;99.90;;;;;;4885573;29;20212;-91
2021/01/09 20:24:48;;;;;;;17.40;9.57;;;3.20;99.90;;;;;;4879654;29;20721;-89
2021/01/09 20:27:14;;;;;;;18.60;9.67;;;3.10;99.90;;;;;;4884888;29;20189;-90
2021/01/09 20:29:39;;;;;;;21.57;10.27;;;3.20;99.90;;;;;;4873292;29;20678;-89
2021/01/09 20:32:14;;;;;;;21.63;11.53;;;3.00;99.90;;;;;;4884011;29;20201;-89
2021/01/09 20:34:40;;;;;;;18.20;10.23;;;3.00;99.90;;;;;;4885198;29;20658;-89
2021/01/09 20:37:06;;;;;;;20.20;10.13;;;3.00;99.90;;;;;;4882597;29;20221;-91
2021/01/09 20:39:31;;;;;;;20.97;10.63;;;3.00;99.90;;;;;;4878449;29;20277;-88
2021/01/09 20:41:57;;;;;;;19.53;9.00;;;3.00;99.90;;;;;;4883297;29;20208;-90
2021/01/09 20:44:23;;;;;;;16.33;8.57;;;3.00;99.90;;;;;;4883490;29;20685;-89
2021/01/09 20:46:48;;;;;;;16.63;8.37;;;3.00;99.90;;;;;;4887944;29;20258;-89
2021/01/09 20:49:14;;;;;;;16.00;8.40;;;3.00;99.90;;;;;;4883166;29;20190;-89
2021/01/09 20:51:40;;;;;;;19.70;8.87;;;3.00;99.90;;;;;;4883209;29;20189;-90
2021/01/09 20:54:06;;;;;;;18.97;9.97;;;3.00;99.90;;;;;;4882439;29;20225;-90
2021/01/09 20:56:33;;;;;;;18.07;9.17;;;3.00;99.90;;;;;;4884634;29;20272;-89
2021/01/09 20:58:59;;;;;;;20.23;9.17;;;3.00;99.90;;;;;;4885364;29;20197;-89
2021/01/09 21:01:26;;;;;;;16.53;8.80;;;3.00;99.90;;;;;;4883949;29;20181;-89
2021/01/09 21:03:52;;;;;;;19.90;9.60;;;3.00;99.90;;;;;;4880117;29;20191;-89
2021/01/09 21:06:18;;;;;;;16.70;9.17;;;3.00;99.90;;;;;;4880216;29;20209;-91
2021/01/09 21:08:45;;;;;;;17.77;8.67;;;3.00;99.90;;;;;;4883755;29;20200;-90
2021/01/09 21:11:13;;;;;;;20.80;9.33;;;3.10;99.90;;;;;;4884035;29;20186;-91
2021/01/09 21:13:39;;;;;;;19.03;9.03;;;3.00;99.90;;;;;;4891672;29;20189;-89
2021/01/09 21:16:09;;;;;;;18.73;9.50;;;3.00;99.90;;;;;;4882787;29;20217;-90
2021/01/09 21:18:39;;;;;;;19.20;8.77;;;3.00;99.90;;;;;;4889690;29;20254;-89
2021/01/09 21:21:13;;;;;;;18.73;9.10;;;3.00;99.90;;;;;;4880791;29;20186;-90
2021/01/09 21:23:40;;;;;;;17.43;9.13;;;3.00;99.90;;;;;;4881227;29;20184;-90
2021/01/09 21:26:07;;;;;;;18.37;9.93;;;3.00;99.90;;;;;;4884940;29;20591;-89
2021/01/09 21:28:33;;;;;;;18.37;9.67;;;3.00;99.90;;;;;;4881967;29;20189;-89
2021/01/09 21:31:00;;;;;;;17.63;8.77;;;2.90;99.90;;;;;;4882826;29;20235;-89
2021/01/09 21:33:26;;;;;;;19.97;10.30;;;2.90;99.90;;;;;;4879912;29;20185;-89
2021/01/09 21:35:52;;;;;;;20.17;10.13;;;2.80;99.90;;;;;;4881545;29;20224;-89
2021/01/09 21:38:18;;;;;;;19.67;9.80;;;2.80;99.90;;;;;;4881721;29;20554;-89
2021/01/09 21:40:44;;;;;;;22.87;10.43;;;2.90;99.90;;;;;;4876342;29;20253;-89
2021/01/09 21:43:10;;;;;;;24.97;11.83;;;2.90;99.90;;;;;;4879348;29;20193;-91
2021/01/09 21:45:36;;;;;;;20.33;9.37;;;2.90;99.90;;;;;;4881305;29;20209;-90
2021/01/09 21:48:02;;;;;;;20.63;9.77;;;2.90;99.90;;;;;;4882357;29;20241;-91
2021/01/09 21:50:28;;;;;;;23.07;10.67;;;2.90;99.90;;;;;;4883695;29;20560;-89
2021/01/09 21:53:01;;;;;;;20.10;9.93;;;2.90;99.90;;;;;;4881215;29;20283;-91
2021/01/09 21:55:28;;;;;;;23.33;11.43;;;2.90;99.90;;;;;;4882847;29;20303;-92
2021/01/09 21:57:54;;;;;;;21.97;10.73;;;2.90;99.90;;;;;;4880790;29;20674;-91
2021/01/09 22:00:31;;;;;;;21.23;9.73;;;2.80;99.90;;;;;;4880677;29;20194;-88
2021/01/09 22:02:58;;;;;;;20.37;9.87;;;2.80;99.90;;;;;;4877463;29;20192;-89
2021/01/09 22:05:24;;;;;;;24.70;10.73;;;2.70;99.90;;;;;;4878156;29;20654;-89
2021/01/09 22:07:50;;;;;;;23.73;10.50;;;2.80;99.90;;;;;;4879020;29;20277;-90
2021/01/09 22:10:16;;;;;;;21.40;10.43;;;2.70;99.90;;;;;;4881499;29;20221;-88
2021/01/09 22:12:52;;;;;;;19.47;9.53;;;2.70;99.90;;;;;;4872627;29;20224;-87
2021/01/09 22:15:18;;;;;;;23.40;10.70;;;2.70;99.90;;;;;;4876685;29;20300;-89
2021/01/09 22:17:46;;;;;;;19.53;9.77;;;2.70;99.90;;;;;;4876594;29;20404;-88
2021/01/09 22:20:13;;;;;;;22.40;10.37;;;2.60;99.90;;;;;;4875592;29;20185;-88
2021/01/09 22:22:47;;;;;;;20.37;10.10;;;2.60;99.90;;;;;;4874667;29;20190;-92
2021/01/09 22:25:14;;;;;;;18.30;9.87;;;2.60;99.90;;;;;;4875993;29;20216;-91
2021/01/09 22:27:40;;;;;;;19.70;9.63;;;2.60;99.90;;;;;;4883171;29;20194;-89
2021/01/09 22:30:07;;;;;;;20.50;8.70;;;2.50;99.90;;;;;;4884695;29;20190;-89
2021/01/09 22:32:32;;;;;;;18.53;9.37;;;2.50;99.90;;;;;;4882675;29;20193;-90
2021/01/09 22:34:58;;;;;;;18.97;9.03;;;2.40;99.90;;;;;;4868884;29;20648;-89
2021/01/09 22:37:24;;;;;;;21.37;11.37;;;2.40;99.90;;;;;;4888631;29;20236;-89
2021/01/09 22:39:49;;;;;;;18.77;10.10;;;2.40;99.90;;;;;;4880771;29;20185;-90
2021/01/09 22:42:16;;;;;;;19.80;9.50;;;2.30;99.90;;;;;;4881345;29;20241;-90
2021/01/09 22:44:42;;;;;;;20.03;9.13;;;2.40;99.90;;;;;;4882044;29;20178;-90
2021/01/09 22:47:07;;;;;;;24.07;11.60;;;2.40;99.90;;;;;;4881273;29;20193;-90
2021/01/09 22:50:28;;;;;;;23.50;10.23;;;2.20;99.90;;;;;;4881450;29;20197;-90
2021/01/09 23:00:06;;;;;;;32.67;12.50;;;2.20;99.90;;;;;;4873997;23;20238;-90
2021/01/09 23:02:35;;;;;;;37.03;13.53;;;2.20;99.90;;;;;;4901584;29;20184;-89
2021/01/09 23:05:02;;;;;;;29.77;12.50;;;2.10;99.90;;;;;;4903572;29;20204;-90
2021/01/09 23:07:40;;;;;;;24.90;10.70;;;2.00;99.90;;;;;;4888948;29;20176;-90
2021/01/09 23:10:24;;;;;;;29.80;11.33;;;1.90;99.90;;;;;;4882222;29;20290;-90
